Attawapiskat Airport
CYAT : now visible

Airfield :











YOU CAN JOIN US ON...

 
LOGIN :

Register | Disclaimer

   EN    FR    IT 

 









Legend :    VFR   Marginal VFR   IFR   Intensive IFR   Very Intensive IFR
Visi :
Ceiling :
>= 8 km
>= 3000ft
5 to 8 km
1000 to 3000 ft
1500m to 5 km
500 to 1000 ft
800 to 1500m
200 to 500 ft
< 800m
< 200 ft
Symbols :   Thunderstorms  Fog  Heavy snow  Heavy precipitations  Wind > 20 kt






- Airport Elevation : 31 ft
- IATA code : YAT


CYAT - Attawapiskat

CURRENT METAR :
  • 280500Z AUTO 01011G16KT 9SM CLR 04/02 A2979 RMK SLP089

EXPIRED METARs :
  • 280428Z AUTO 01015G20KT 9SM SCT022 05/02 A2978 RMK SLP088
  • 280406Z AUTO 01016G21KT 9SM SCT007 SCT012 OVC020 06/03 A2978 RMK PRESRR SLP086
  • 280313Z AUTO 01013G19KT 9SM OVC007 09/07 A2976 RMK SLP078
  • 280252Z AUTO 02010G19KT 9SM BKN009 OVC120 09/07 A2975 RMK SLP076
  • 280205Z AUTO 03013G18KT 9SM BKN011 OVC086 10/08 A2974 RMK SLP072
  • 280100Z AUTO 04011G17KT 9SM OVC076 12/09 A2971 RMK SLP063
  • 280000Z AUTO 04013G18KT 9SM FEW066 OVC100 12/08 A2970 RMK SLP059

Expired Forecast.
CZWG FIR / North America



MET'MAP, your aeronautical weather chart ! - Copyright ORBIFLY December 2007 - Disclaimer

ORBIFLY MET'MAP TEAM :

Programming & Development : Alexandra Zaïnal
Original concept : Baudouin d'Aumeries
Technical & hardware support : Manuel Goepfert
Assistance : Marc-Olivier Méhu




SOURCES & CREDITS :

   NOAA       Earth
Advisory